createdAt,value
2018-11-20T00:00:13.407Z,15.50
2018-11-20T00:03:39.258Z,13.87
2018-11-20T00:07:00.443Z,11.83
2018-11-20T00:10:38.230Z,11.07
2018-11-20T00:14:19.128Z,13.67
2018-11-20T00:17:40.656Z,14.67
2018-11-20T00:20:56.347Z,13.63
2018-11-20T00:24:19.066Z,14.93
2018-11-20T00:27:44.555Z,13.97
2018-11-20T00:31:07.243Z,13.53
2018-11-20T00:34:28.273Z,11.73
2018-11-20T00:37:49.736Z,14.37
2018-11-20T00:41:03.946Z,15.90
2018-11-20T00:44:26.746Z,14.53
2018-11-20T00:47:47.800Z,12.70
2018-11-20T00:51:13.215Z,14.67
2018-11-20T00:54:34.299Z,16.43
2018-11-20T00:58:02.920Z,12.40
2018-11-20T01:01:23.128Z,14.47
2018-11-20T01:04:44.368Z,15.93
2018-11-20T01:08:07.411Z,13.33
2018-11-20T01:11:28.590Z,16.33
2018-11-20T01:15:01.415Z,12.67
2018-11-20T01:18:23.221Z,13.03
2018-11-20T01:21:44.709Z,14.30
2018-11-20T01:25:10.220Z,13.33
2018-11-20T01:28:51.445Z,16.00
2018-11-20T01:32:11.763Z,14.77
2018-11-20T01:35:43.865Z,16.87
2018-11-20T01:39:21.348Z,12.90
2018-11-20T01:42:49.910Z,12.83
2018-11-20T01:46:21.447Z,16.57
2018-11-20T01:49:41.581Z,17.50
2018-11-20T01:53:11.059Z,13.63
2018-11-20T01:56:32.331Z,14.53
2018-11-20T01:59:49.122Z,16.83
2018-11-20T02:03:10.615Z,18.33
2018-11-20T02:06:32.042Z,19.10
2018-11-20T02:09:57.747Z,16.53
2018-11-20T02:14:10.228Z,15.57
2018-11-20T02:17:54.796Z,14.87
2018-11-20T02:21:29.411Z,14.70
2018-11-20T02:24:44.075Z,15.67
2018-11-20T02:28:15.808Z,16.10
2018-11-20T02:31:44.679Z,16.27
2018-11-20T02:34:55.604Z,15.77
2018-11-20T02:38:15.077Z,13.97
2018-11-20T02:41:56.327Z,13.63
2018-11-20T02:45:17.745Z,14.47
2018-11-20T02:48:47.715Z,16.30
2018-11-20T02:52:10.460Z,16.40
2018-11-20T02:55:31.732Z,13.90
2018-11-20T02:59:09.655Z,12.57
2018-11-20T03:02:44.236Z,16.30
2018-11-20T03:06:08.113Z,15.07
2018-11-20T03:09:39.649Z,19.07
2018-11-20T03:13:02.297Z,15.20
2018-11-20T03:16:19.875Z,12.97
2018-11-20T03:19:42.534Z,14.53
2018-11-20T03:23:03.367Z,14.10
2018-11-20T03:26:46.957Z,16.70
2018-11-20T03:31:22.051Z,14.83
2018-11-20T03:34:44.232Z,13.40
2018-11-20T03:38:05.568Z,14.50
2018-11-20T03:41:21.708Z,14.13
2018-11-20T03:45:02.789Z,12.53
2018-11-20T03:48:34.421Z,12.93
2018-11-20T03:52:03.152Z,14.37
2018-11-20T03:55:21.323Z,15.67
2018-11-20T03:58:52.136Z,14.03
2018-11-20T04:02:17.654Z,12.70
2018-11-20T04:05:28.015Z,12.67
2018-11-20T04:08:50.651Z,11.20
2018-11-20T04:12:03.623Z,13.57
2018-11-20T04:15:28.971Z,12.60
2018-11-20T04:18:56.470Z,13.20
2018-11-20T04:22:28.399Z,13.50
2018-11-20T04:25:52.523Z,13.70
2018-11-20T04:29:18.052Z,13.60
2018-11-20T04:32:37.723Z,14.43
2018-11-20T04:35:53.216Z,16.10
2018-11-20T04:39:07.669Z,12.07
2018-11-20T04:42:28.737Z,13.37
2018-11-20T04:45:51.399Z,14.73
2018-11-20T04:49:23.203Z,14.80
2018-11-20T04:52:54.820Z,12.33
2018-11-20T04:56:24.889Z,13.83
2018-11-20T04:59:57.348Z,15.70
2018-11-20T05:03:25.867Z,14.33
2018-11-20T05:07:06.768Z,16.93
2018-11-20T05:10:28.337Z,14.53
2018-11-20T05:13:53.728Z,15.67
2018-11-20T05:17:16.409Z,15.67
2018-11-20T05:20:51.174Z,14.87
2018-11-20T05:24:12.280Z,15.57
2018-11-20T05:27:27.152Z,12.83
2018-11-20T05:31:01.758Z,17.87
2018-11-20T05:34:30.347Z,13.23
2018-11-20T05:37:52.924Z,11.80
2018-11-20T05:41:27.654Z,15.20
2018-11-20T05:44:58.085Z,14.73
2018-11-20T05:48:33.003Z,11.63
2018-11-20T05:51:54.148Z,16.93
2018-11-20T05:55:15.461Z,13.43
2018-11-20T05:58:36.945Z,15.47
2018-11-20T06:02:05.628Z,13.37
2018-11-20T06:05:24.858Z,14.80
2018-11-20T06:08:46.208Z,13.67
2018-11-20T06:12:20.947Z,12.07
2018-11-20T06:15:42.065Z,20.37
2018-11-20T06:19:03.430Z,16.23
2018-11-20T06:22:35.099Z,15.10
2018-11-20T06:26:06.467Z,17.93
2018-11-20T06:29:35.035Z,14.30
2018-11-20T06:32:46.127Z,16.53
2018-11-20T06:36:14.515Z,17.37
2018-11-20T06:39:35.900Z,13.23
2018-11-20T06:43:07.300Z,18.60
2018-11-20T06:46:48.329Z,15.43
2018-11-20T06:50:22.911Z,16.83
2018-11-20T06:53:44.110Z,14.10
2018-11-20T06:57:05.396Z,18.53
2018-11-20T07:00:26.704Z,19.70
2018-11-20T07:03:48.021Z,20.67
2018-11-20T07:07:16.714Z,16.83
2018-11-20T07:10:37.924Z,17.03
2018-11-20T07:14:18.233Z,19.93
2018-11-20T07:17:51.871Z,18.07
2018-11-20T07:21:09.296Z,20.17
2018-11-20T07:24:30.798Z,21.97
2018-11-20T07:27:44.971Z,19.40
2018-11-20T07:31:06.313Z,20.23
2018-11-20T07:34:44.242Z,17.60
2018-11-20T07:38:12.543Z,23.00
2018-11-20T07:41:27.252Z,19.40
2018-11-20T07:44:59.348Z,25.60
2018-11-20T07:48:31.044Z,20.03
2018-11-20T07:52:02.425Z,20.13
2018-11-20T07:55:27.705Z,19.20
2018-11-20T07:58:50.287Z,22.60
2018-11-20T08:02:22.189Z,20.30
2018-11-20T08:05:47.677Z,22.63
2018-11-20T08:09:10.323Z,26.07
2018-11-20T08:12:31.451Z,21.23
2018-11-20T08:15:52.885Z,25.80
2018-11-20T08:19:14.336Z,21.60
2018-11-20T08:22:36.934Z,21.30
2018-11-20T08:25:59.682Z,22.67
2018-11-20T08:29:16.211Z,24.70
2018-11-20T08:32:37.364Z,21.80
2018-11-20T08:36:00.036Z,26.77
2018-11-20T08:39:36.763Z,20.60
2018-11-20T08:43:05.077Z,23.03
2018-11-20T08:46:26.189Z,24.53
2018-11-20T08:49:51.628Z,25.20
2018-11-20T08:53:14.317Z,24.23
2018-11-20T08:56:39.848Z,22.67
2018-11-20T09:00:05.340Z,24.50
2018-11-20T09:03:33.861Z,21.13
2018-11-20T09:07:08.491Z,20.90
2018-11-20T09:10:37.547Z,24.23
2018-11-20T09:14:05.641Z,21.30
2018-11-20T09:17:31.157Z,25.30
2018-11-20T09:20:52.279Z,22.87
2018-11-20T09:24:06.150Z,25.93
2018-11-20T09:27:37.582Z,24.83
2018-11-20T09:30:58.807Z,23.30
2018-11-20T09:34:24.387Z,24.33
2018-11-20T09:37:38.728Z,18.10
2018-11-20T09:41:05.728Z,34.90
2018-11-20T09:44:50.759Z,28.93
2018-11-20T09:48:19.550Z,30.53
2018-11-20T09:51:42.253Z,25.50
2018-11-20T09:55:14.247Z,27.73
2018-11-20T09:58:51.786Z,27.00
2018-11-20T10:02:29.303Z,27.73
2018-11-20T10:05:54.535Z,27.53
2018-11-20T10:09:16.387Z,33.57
2018-11-20T10:12:30.793Z,29.20
2018-11-20T10:15:52.232Z,34.77
2018-11-20T10:19:10.661Z,27.80
2018-11-20T10:22:48.280Z,31.20
2018-11-20T10:26:08.340Z,25.10
2018-11-20T10:29:46.388Z,27.47
2018-11-20T10:33:21.140Z,29.98
2018-11-20T10:36:42.391Z,22.87
2018-11-20T10:40:17.164Z,24.60
2018-11-20T10:43:46.033Z,24.93
2018-11-20T10:47:26.865Z,27.60
2018-11-20T10:50:48.169Z,29.73
2018-11-20T10:54:13.783Z,28.37
2018-11-20T10:57:35.194Z,20.63
2018-11-20T11:00:56.631Z,21.93
2018-11-20T11:04:19.641Z,26.23
2018-11-20T11:07:51.400Z,27.67
2018-11-20T11:11:12.623Z,25.47
2018-11-20T11:14:34.041Z,28.83
2018-11-20T11:17:56.617Z,27.47
2018-11-20T11:21:21.865Z,20.97
2018-11-20T11:24:44.493Z,27.37
2018-11-20T11:28:13.359Z,29.30
2018-11-20T11:31:34.595Z,26.67
2018-11-20T11:34:57.373Z,24.43
2018-11-20T11:38:12.793Z,23.67
2018-11-20T11:41:44.536Z,23.07
2018-11-20T11:45:15.980Z,22.23
2018-11-20T11:48:44.225Z,17.90
2018-11-20T11:52:06.904Z,23.73
2018-11-20T11:55:32.196Z,27.23
2018-11-20T11:58:59.371Z,23.00
2018-11-20T12:05:59.220Z,28.40
2018-11-20T12:09:18.334Z,19.40
2018-11-20T12:12:39.517Z,28.13
2018-11-20T12:16:05.017Z,22.87
2018-11-20T12:19:33.507Z,30.07
2018-11-20T12:22:52.497Z,28.37
2018-11-20T12:26:13.805Z,26.53
2018-11-20T12:29:37.343Z,28.47
2018-11-20T12:33:01.857Z,28.03
2018-11-20T12:36:36.372Z,28.67
2018-11-20T12:40:02.176Z,31.63
2018-11-20T12:43:23.448Z,24.93
2018-11-20T12:47:25.899Z,29.40
2018-11-20T12:50:54.179Z,21.40
2018-11-20T12:54:34.467Z,27.73
2018-11-20T12:57:54.916Z,22.70
2018-11-20T13:01:16.731Z,28.57
2018-11-20T13:04:44.809Z,26.03
2018-11-20T13:08:15.881Z,29.27
2018-11-20T13:11:42.311Z,30.13
2018-11-20T13:15:02.970Z,25.33
2018-11-20T13:18:12.667Z,26.93
2018-11-20T13:21:24.908Z,35.93
2018-11-20T13:24:49.386Z,30.43
2018-11-20T13:28:10.083Z,24.27
2018-11-20T13:31:33.689Z,24.33
2018-11-20T13:35:13.505Z,24.00
2018-11-20T13:38:52.049Z,15.83
2018-11-20T13:42:14.183Z,21.73
2018-11-20T13:45:24.323Z,24.50
2018-11-20T13:48:47.358Z,24.77
2018-11-20T13:52:05.219Z,22.70
2018-11-20T13:55:27.434Z,23.07
2018-11-20T13:58:48.587Z,18.70
2018-11-20T14:02:00.381Z,25.60
2018-11-20T14:05:28.182Z,24.07
2018-11-20T14:08:48.533Z,24.13
2018-11-20T14:12:20.441Z,19.80
2018-11-20T14:16:00.232Z,23.07
2018-11-20T14:19:31.101Z,25.43
2018-11-20T14:22:53.050Z,25.23
2018-11-20T14:26:13.650Z,26.80
2018-11-20T14:29:31.216Z,23.80
2018-11-20T14:33:05.423Z,17.07
2018-11-20T14:36:27.948Z,29.30
2018-11-20T14:39:52.660Z,25.77
2018-11-20T14:43:33.081Z,25.23
2018-11-20T14:47:10.126Z,27.30
2018-11-20T14:50:47.265Z,26.17
2018-11-20T14:54:07.979Z,20.70
2018-11-20T14:57:29.048Z,20.50
2018-11-20T15:00:58.857Z,25.97
2018-11-20T15:04:19.375Z,20.63
2018-11-20T15:07:40.223Z,20.73
2018-11-20T15:11:04.939Z,19.27
2018-11-20T15:14:27.675Z,19.20
2018-11-20T15:17:52.377Z,21.53
2018-11-20T15:21:05.120Z,21.70
2018-11-20T15:24:25.854Z,17.13
2018-11-20T15:27:46.336Z,18.03
2018-11-20T15:31:17.060Z,21.77
2018-11-20T15:34:46.885Z,19.37
2018-11-20T15:38:08.843Z,17.80
2018-11-20T15:41:27.167Z,17.60
2018-11-20T15:44:51.959Z,19.43
2018-11-20T15:48:13.979Z,18.37
2018-11-20T15:51:34.831Z,20.40
2018-11-20T15:54:56.759Z,22.53
2018-11-20T15:58:17.403Z,20.10
2018-11-20T16:01:57.298Z,23.20
2018-11-20T16:05:37.505Z,23.20
2018-11-20T16:09:08.370Z,23.50
2018-11-20T16:12:33.062Z,19.53
2018-11-20T16:15:55.544Z,22.70
2018-11-20T16:19:16.693Z,21.83
2018-11-20T16:22:44.319Z,27.93
2018-11-20T16:26:04.535Z,26.93
2018-11-20T16:29:38.760Z,29.23
2018-11-20T16:32:57.223Z,25.80
2018-11-20T16:36:19.159Z,28.10
2018-11-20T16:39:39.895Z,33.37
2018-11-20T16:42:54.021Z,25.90
2018-11-20T16:46:14.773Z,23.50
2018-11-20T16:49:36.242Z,25.53
2018-11-20T16:53:13.351Z,26.07
2018-11-20T16:56:42.000Z,49.23
2018-11-20T17:00:02.843Z,34.67
2018-11-20T17:03:24.766Z,18.60
2018-11-20T17:06:55.440Z,34.40
2018-11-20T17:10:29.010Z,30.87
2018-11-20T17:13:51.053Z,30.20
2018-11-20T17:17:16.093Z,27.47
2018-11-20T17:20:36.444Z,28.07
2018-11-20T17:24:13.267Z,56.50
2018-11-20T17:27:33.876Z,27.30
2018-11-20T17:30:54.226Z,16.97
2018-11-20T17:34:23.291Z,27.67
2018-11-20T17:37:35.286Z,33.73
2018-11-20T17:40:55.724Z,25.10
2018-11-20T17:44:16.125Z,25.37
2018-11-20T17:47:49.877Z,17.63
2018-11-20T17:51:17.886Z,26.93
2018-11-20T17:54:42.545Z,38.13
2018-11-20T17:58:13.642Z,21.87
2018-11-20T18:01:44.136Z,26.60
2018-11-20T18:04:56.201Z,24.27
2018-11-20T18:08:16.877Z,30.23
2018-11-20T18:11:37.824Z,33.40
2018-11-20T18:14:59.713Z,29.80
2018-11-20T18:18:20.226Z,30.53
2018-11-20T18:21:54.385Z,37.07
2018-11-20T18:25:15.470Z,26.47
2018-11-20T18:28:27.797Z,34.07
2018-11-20T18:31:48.317Z,56.10
2018-11-20T18:35:08.634Z,30.23
2018-11-20T18:38:28.873Z,30.83
2018-11-20T18:41:49.816Z,28.90
2018-11-20T18:45:24.065Z,27.10
2018-11-20T18:49:00.809Z,31.73
2018-11-20T18:52:21.397Z,28.07
2018-11-20T18:55:46.311Z,25.27
2018-11-20T18:59:14.025Z,27.27
2018-11-20T19:02:48.822Z,21.13
2018-11-20T19:06:13.721Z,30.37
2018-11-20T19:09:41.419Z,30.63
2018-11-20T19:13:09.661Z,23.83
2018-11-20T19:16:42.551Z,31.47
2018-11-20T19:20:19.612Z,35.50
2018-11-20T19:23:39.892Z,33.20
2018-11-20T19:27:07.334Z,29.30
2018-11-20T19:30:22.370Z,28.10
2018-11-20T19:33:53.135Z,30.80
2018-11-20T19:37:13.699Z,26.63
2018-11-20T19:40:38.110Z,26.33
2018-11-20T19:43:58.822Z,25.13
2018-11-20T19:47:19.827Z,32.50
2018-11-20T19:50:39.873Z,28.40
2018-11-20T19:54:00.297Z,28.00
2018-11-20T19:57:34.018Z,26.57
2018-11-20T20:00:55.829Z,31.40
2018-11-20T20:04:17.665Z,29.00
2018-11-20T20:07:38.217Z,27.23
2018-11-20T20:11:11.801Z,28.57
2018-11-20T20:14:24.308Z,21.57
2018-11-20T20:17:44.931Z,25.43
2018-11-20T20:21:06.827Z,19.47
2018-11-20T20:24:27.284Z,30.23
2018-11-20T20:27:48.175Z,29.10
2018-11-20T20:31:08.906Z,29.07
2018-11-20T20:34:21.409Z,25.53
2018-11-20T20:38:01.211Z,28.67
2018-11-20T20:41:26.026Z,30.00
2018-11-20T20:45:00.359Z,21.70
2018-11-20T20:48:24.718Z,32.43
2018-11-20T20:51:56.616Z,27.20
2018-11-20T20:55:36.579Z,28.83
2018-11-20T20:59:00.953Z,28.57
2018-11-20T21:02:26.374Z,30.83
2018-11-20T21:05:48.183Z,28.23
2018-11-20T21:09:10.101Z,32.17
2018-11-20T21:12:30.317Z,28.57
2018-11-20T21:16:07.744Z,30.03
2018-11-20T21:19:19.945Z,28.00
2018-11-20T21:22:40.528Z,28.63
2018-11-20T21:26:00.953Z,32.73
2018-11-20T21:29:23.670Z,30.60
2018-11-20T21:32:44.218Z,31.40
2018-11-20T21:35:59.623Z,26.47
2018-11-20T21:39:20.246Z,30.77
2018-11-20T21:42:32.349Z,34.20
2018-11-20T21:45:54.181Z,31.30
2018-11-20T21:49:14.518Z,34.67
2018-11-20T21:52:45.766Z,30.30
2018-11-20T21:56:26.361Z,28.43
2018-11-20T21:59:57.553Z,31.70
2018-11-20T22:03:20.046Z,31.67
2018-11-20T22:06:40.706Z,33.50
2018-11-20T22:09:56.586Z,33.33
2018-11-20T22:13:17.578Z,32.50
2018-11-20T22:16:38.344Z,36.17
2018-11-20T22:20:15.743Z,34.13
2018-11-20T22:23:36.570Z,35.87
2018-11-20T22:27:10.921Z,37.63
2018-11-20T22:30:32.800Z,37.20
2018-11-20T22:34:03.393Z,34.10
2018-11-20T22:37:25.274Z,35.17
2018-11-20T22:40:45.829Z,38.23
2018-11-20T22:44:06.250Z,36.00
2018-11-20T22:47:21.573Z,34.67
2018-11-20T22:50:42.404Z,36.33
2018-11-20T22:53:58.277Z,34.83
2018-11-20T22:57:08.950Z,38.87
2018-11-20T23:00:42.961Z,31.03
2018-11-20T23:04:17.289Z,29.53
2018-11-20T23:07:57.622Z,30.83
2018-11-20T23:10:59.909Z,33.93
2018-11-20T23:14:02.233Z,33.67
2018-11-20T23:17:04.879Z,30.70
2018-11-20T23:20:08.215Z,33.43
2018-11-20T23:23:10.718Z,34.47
2018-11-20T23:26:12.981Z,30.67
2018-11-20T23:29:15.297Z,34.53
2018-11-20T23:32:17.676Z,32.93
2018-11-20T23:35:19.936Z,32.83
2018-11-20T23:38:22.345Z,32.23
2018-11-20T23:41:24.699Z,34.57
2018-11-20T23:44:27.433Z,34.97
2018-11-20T23:47:29.975Z,37.77
2018-11-20T23:50:32.420Z,32.67
2018-11-20T23:53:34.694Z,31.07
2018-11-20T23:56:36.966Z,36.43
2018-11-20T23:59:39.264Z,33.23
